Save, Benin
Current Conditions -  °F | °C
As of 7:00 PM on Friday 28 Nov 2014 (Local Time) from DBBB Reporting Station
Scattered Clouds Scattered Clouds  
Wind Chill: 82°   Ceiling: Unl
Heat Index: 94°   Visibility: 6mi
Dew Point: 81°   Wind: 8mph
Humidity: 94%   Direction: 180°S
Pressure: 29.8"   Gusts: NA
Location:  8.03°N, 2.49°E
Report Text: DBBB 281800Z 18007KT 9999 SCT012 28/27 Q1009 NOSIG
Loading
Personal Weather Stations






























Interactive Weather Map New forecast layout! Learn more

10-Day Weather Forecast

Advertisements
Track Severe Weather on mobile